Time;durP1;ratioP1;P1;durP2;ratioP2;P2;SDS_P1;SDS_P2;PMS_P1;PMS_P2;Temp;Humidity;BMP_temperature;BMP_pressure;BME280_temperature;BME280_humidity;BME280_pressure;Samples;Min_cycle;Max_cycle;Signal;HPM_P1;HPM_P2
2023/05/18 00:02:06;;;;;;;8.00;3.22;;;;;;;9.25;63.72;102535.66;3613784;39;20055;-65
2023/05/18 00:04:34;;;;;;;8.95;3.40;;;;;;;9.22;63.92;102526.81;3613732;39;20448;-66
2023/05/18 00:07:05;;;;;;;11.60;3.40;;;;;;;9.20;63.93;102531.38;3615190;39;20069;-65
2023/05/18 00:09:34;;;;;;;9.68;3.00;;;;;;;9.15;64.07;102531.50;3612068;39;20054;-65
2023/05/18 00:12:01;;;;;;;13.40;3.38;;;;;;;9.11;63.96;102527.16;3613107;39;20050;-67
2023/05/18 00:14:27;;;;;;;9.00;3.50;;;;;;;9.08;64.43;102535.28;3613328;39;20050;-66
2023/05/18 00:16:54;;;;;;;9.02;3.30;;;;;;;8.80;64.42;102489.56;3613919;39;20143;-66
2023/05/18 00:19:22;;;;;;;15.07;3.22;;;;;;;9.04;64.99;102537.16;3613953;39;20058;-66
2023/05/18 00:21:50;;;;;;;9.32;3.00;;;;;;;9.02;64.40;102533.63;3611384;39;20063;-65
2023/05/18 00:24:17;;;;;;;10.15;3.50;;;;;;;8.92;63.96;102516.06;3613055;39;20047;-65
2023/05/18 00:26:45;;;;;;;8.38;3.28;;;;;;;8.91;64.68;102530.41;3612235;39;20063;-65
2023/05/18 00:29:12;;;;;;;6.13;3.05;;;;;;;8.72;64.99;102497.84;3614198;39;20112;-65
2023/05/18 00:31:39;;;;;;;10.02;3.17;;;;;;;8.87;64.56;102534.06;3613444;39;20107;-67
2023/05/18 00:34:05;;;;;;;8.57;2.78;;;;;;;8.74;64.50;102513.88;3612140;39;20282;-66
2023/05/18 00:36:32;;;;;;;7.47;2.97;;;;;;;8.85;64.65;102535.94;3613024;39;20412;-65
2023/05/18 00:38:58;;;;;;;9.02;3.35;;;;;;;8.83;64.46;102535.06;3613565;39;20310;-64
2023/05/18 00:41:26;;;;;;;9.60;3.28;;;;;;;8.79;65.29;102544.13;3613265;39;20042;-65
2023/05/18 00:43:53;;;;;;;7.38;3.00;;;;;;;8.75;64.51;102534.38;3610893;39;20669;-66
2023/05/18 00:46:19;;;;;;;7.47;2.90;;;;;;;8.74;64.74;102538.88;3614254;39;20054;-67
2023/05/18 00:48:47;;;;;;;10.73;3.42;;;;;;;8.62;65.27;102527.59;3612689;39;20690;-66
2023/05/18 00:51:13;;;;;;;8.85;3.42;;;;;;;8.11;65.27;102444.00;3613038;39;20055;-66
2023/05/18 00:53:40;;;;;;;12.40;2.97;;;;;;;8.57;65.42;102531.28;3612987;39;20047;-66
2023/05/18 00:56:07;;;;;;;9.85;3.25;;;;;;;8.62;65.43;102543.69;3611943;39;20075;-66
2023/05/18 00:58:33;;;;;;;8.82;3.38;;;;;;;8.59;66.27;102540.19;3613841;39;20105;-66
2023/05/18 01:01:01;;;;;;;7.25;3.05;;;;;;;8.57;65.99;102542.00;3612165;39;20062;-66
2023/05/18 01:03:29;;;;;;;9.57;3.28;;;;;;;8.54;66.34;102535.84;3613411;39;20116;-66
2023/05/18 01:05:56;;;;;;;10.93;3.22;;;;;;;8.48;66.03;102531.53;3615948;39;20066;-66
2023/05/18 01:08:25;;;;;;;10.82;3.33;;;;;;;8.47;65.20;102542.25;3612813;39;20047;-66
2023/05/18 01:11:20;;;;;;;9.55;3.30;;;;;;;8.42;65.92;102541.53;3612723;39;20373;-66
2023/05/18 01:14:23;;;;;;;7.95;3.38;;;;;;;8.37;66.91;102549.63;3611686;39;20085;-66
2023/05/18 01:17:22;;;;;;;7.07;3.30;;;;;;;8.34;66.34;102547.94;3606184;39;20053;-66
2023/05/18 01:19:50;;;;;;;12.07;3.45;;;;;;;8.34;66.40;102549.69;3615197;39;20151;-66
2023/05/18 01:22:49;;;;;;;6.93;3.35;;;;;;;8.27;66.46;102545.41;3615956;39;20055;-66
2023/05/18 01:25:52;;;;;;;9.40;3.65;;;;;;;8.29;66.79;102554.31;3610387;39;20061;-66
2023/05/18 01:28:27;;;;;;;11.00;3.92;;;;;;;8.26;66.38;102554.38;3620254;39;20132;-67
2023/05/18 01:30:54;;;;;;;9.27;3.90;;;;;;;8.21;66.37;102548.25;3616544;39;20051;-66
2023/05/18 01:33:20;;;;;;;7.90;3.30;;;;;;;8.23;66.57;102546.41;3618419;39;20053;-66
2023/05/18 01:35:48;;;;;;;9.27;3.30;;;;;;;8.21;67.05;102550.91;3621889;39;20094;-66
2023/05/18 01:38:19;;;;;;;6.25;3.17;;;;;;;8.19;67.07;102555.47;3615315;39;20074;-67
2023/05/18 01:41:10;;;;;;;9.20;4.10;;;;;;;8.15;67.09;102554.66;3614766;39;20059;-66
2023/05/18 01:43:54;;;;;;;8.45;3.60;;;;;;;7.67;67.35;102474.53;3614678;39;20430;-66
2023/05/18 01:46:54;;;;;;;8.30;3.25;;;;;;;8.10;67.64;102551.19;3616367;39;20050;-66
2023/05/18 01:49:43;;;;;;;10.38;3.45;;;;;;;8.08;67.50;102553.88;3619840;39;20086;-66
2023/05/18 01:52:18;;;;;;;8.27;3.45;;;;;;;8.04;68.07;102552.22;3619446;39;20116;-66
2023/05/18 01:54:51;;;;;;;10.15;3.88;;;;;;;8.00;67.97;102545.19;3618722;39;20050;-66
2023/05/18 01:57:22;;;;;;;9.35;3.63;;;;;;;8.05;67.59;102558.44;3618883;39;20115;-66
2023/05/18 01:59:50;;;;;;;8.13;3.70;;;;;;;7.99;67.83;102559.50;3616348;39;20043;-65
2023/05/18 02:02:16;;;;;;;8.95;3.50;;;;;;;7.98;68.42;102552.34;3615300;39;20055;-66
2023/05/18 02:04:42;;;;;;;10.10;3.97;;;;;;;7.96;68.25;102551.53;3614103;39;20055;-66
2023/05/18 02:07:08;;;;;;;7.47;3.90;;;;;;;7.93;68.17;102546.25;3614918;39;20213;-66
2023/05/18 02:09:33;;;;;;;9.23;3.30;;;;;;;7.94;68.77;102539.97;3614050;39;20304;-66
2023/05/18 02:11:59;;;;;;;9.68;3.60;;;;;;;7.93;67.77;102546.25;3615255;39;20102;-66
2023/05/18 02:14:25;;;;;;;9.18;3.40;;;;;;;7.90;68.46;102540.97;3614665;39;20313;-66
2023/05/18 02:16:51;;;;;;;7.68;3.42;;;;;;;7.90;68.29;102543.63;3611260;39;20066;-65
2023/05/18 02:19:21;;;;;;;8.93;3.53;;;;;;;7.94;67.77;102545.31;3615335;39;20378;-66
2023/05/18 02:21:46;;;;;;;10.32;3.72;;;;;;;7.92;68.42;102544.47;3613241;39;20078;-66
2023/05/18 02:24:12;;;;;;;9.60;3.55;;;;;;;7.90;68.55;102543.63;3614141;39;20058;-65
2023/05/18 02:26:38;;;;;;;10.30;3.92;;;;;;;7.91;68.27;102546.25;3612336;39;20494;-65
2023/05/18 02:29:10;;;;;;;7.53;3.03;;;;;;;7.77;68.26;102510.00;3615704;39;20503;-65
2023/05/18 02:31:39;;;;;;;9.82;3.47;;;;;;;7.88;69.07;102532.06;3613594;39;20050;-65
2023/05/18 02:34:07;;;;;;;11.20;3.80;;;;;;;7.92;68.28;102531.06;3615181;39;20674;-65
2023/05/18 02:36:38;;;;;;;9.50;3.45;;;;;;;7.70;68.03;102500.38;3607273;39;20062;-66
2023/05/18 02:39:05;;;;;;;14.13;3.97;;;;;;;7.74;68.19;102510.97;3617750;39;20050;-65
2023/05/18 02:41:32;;;;;;;6.93;3.35;;;;;;;7.82;68.66;102530.41;3615665;39;20061;-67
2023/05/18 02:43:58;;;;;;;9.65;3.50;;;;;;;7.83;68.30;102523.25;3616964;39;20051;-66
2023/05/18 02:46:24;;;;;;;10.90;3.55;;;;;;;7.79;68.05;102524.25;3615548;39;20192;-66
2023/05/18 02:48:50;;;;;;;10.48;3.33;;;;;;;7.81;68.63;102522.44;3616175;39;20205;-66
2023/05/18 02:51:15;;;;;;;7.07;3.78;;;;;;;7.82;68.64;102526.84;3615678;39;20098;-66
2023/05/18 02:53:43;;;;;;;10.13;3.78;;;;;;;7.80;68.98;102521.56;3614311;39;20388;-66
2023/05/18 02:56:11;;;;;;;6.45;3.72;;;;;;;7.72;69.08;102517.28;3614434;39;20148;-66
2023/05/18 02:58:37;;;;;;;13.25;3.75;;;;;;;7.73;68.41;102530.63;3613103;39;20063;-67
2023/05/18 03:01:06;;;;;;;7.43;3.35;;;;;;;7.71;68.79;102529.78;3618565;39;20050;-67
2023/05/18 03:03:35;;;;;;;12.23;3.38;;;;;;;7.47;68.47;102493.75;3614573;39;20127;-66
2023/05/18 03:06:04;;;;;;;8.55;3.53;;;;;;;7.69;68.73;102523.56;3615780;39;20047;-66
2023/05/18 03:08:30;;;;;;;10.35;3.90;;;;;;;7.67;68.73;102536.09;3613650;39;20046;-66
2023/05/18 03:10:59;;;;;;;5.40;3.15;;;;;;;7.67;68.76;102530.75;3611691;39;20407;-67
2023/05/18 03:13:25;;;;;;;5.95;3.22;;;;;;;7.65;68.88;102533.47;3614215;39;20045;-66
2023/05/18 03:15:51;;;;;;;8.77;3.55;;;;;;;7.61;69.51;102523.75;3612035;39;20055;-66
2023/05/18 03:18:20;;;;;;;9.55;3.55;;;;;;;7.61;69.12;102525.53;3613783;39;20054;-66
2023/05/18 03:20:45;;;;;;;10.68;4.03;;;;;;;7.57;69.04;102521.16;3612684;39;20389;-66
2023/05/18 03:23:11;;;;;;;7.10;3.60;;;;;;;7.58;69.41;102537.22;3615277;39;20160;-66
2023/05/18 03:25:37;;;;;;;8.60;3.55;;;;;;;7.57;69.13;102535.44;3612435;39;20086;-66
2023/05/18 03:28:04;;;;;;;6.80;3.70;;;;;;;7.55;68.79;102531.91;3611848;39;20047;-65
2023/05/18 03:30:34;;;;;;;10.13;3.42;;;;;;;7.50;69.19;102530.25;3614369;39;20054;-66
2023/05/18 03:33:01;;;;;;;9.00;3.60;;;;;;;7.51;69.65;102523.97;3615252;39;20058;-66
2023/05/18 03:35:27;;;;;;;8.32;3.70;;;;;;;7.39;69.45;102517.09;3613994;39;20078;-66
2023/05/18 03:37:53;;;;;;;10.20;4.00;;;;;;;7.46;69.57;102534.78;3611538;39;21500;-66
2023/05/18 03:40:20;;;;;;;8.52;3.90;;;;;;;7.44;69.27;102529.47;3617053;39;20039;-66
2023/05/18 03:42:45;;;;;;;5.07;3.30;;;;;;;7.44;69.56;102531.25;3620182;39;20572;-66
2023/05/18 03:45:12;;;;;;;10.15;3.60;;;;;;;7.17;69.15;102490.81;3617734;39;20082;-66
2023/05/18 03:47:38;;;;;;;7.35;3.35;;;;;;;7.08;69.36;102468.75;3614850;39;20069;-66
2023/05/18 03:50:06;;;;;;;12.55;3.80;;;;;;;7.36;69.88;102525.22;3615149;39;20074;-66
2023/05/18 03:52:33;;;;;;;7.85;3.70;;;;;;;7.33;69.52;102527.94;3613247;39;20115;-66
2023/05/18 03:55:01;;;;;;;9.93;3.67;;;;;;;7.37;69.88;102533.19;3613948;39;20046;-66
2023/05/18 03:57:28;;;;;;;6.10;3.75;;;;;;;7.32;70.11;102529.72;3612607;39;20106;-66
2023/05/18 03:59:55;;;;;;;8.02;4.00;;;;;;;7.32;69.47;102535.06;3612242;39;20070;-64
2023/05/18 04:02:21;;;;;;;12.55;3.85;;;;;;;7.29;69.81;102537.81;3616064;39;20062;-63
2023/05/18 04:04:47;;;;;;;10.93;4.47;;;;;;;7.20;70.38;102522.84;3612636;39;20065;-66
2023/05/18 04:07:17;;;;;;;10.35;3.78;;;;;;;7.29;70.41;102542.28;3613182;39;21338;-66
2023/05/18 04:09:43;;;;;;;8.18;4.15;;;;;;;7.27;70.37;102542.31;3612030;39;20054;-66
2023/05/18 04:12:09;;;;;;;8.05;4.30;;;;;;;7.28;70.27;102543.19;3612599;39;20059;-66
2023/05/18 04:14:35;;;;;;;10.93;4.63;;;;;;;7.29;70.61;102551.19;3617960;39;20050;-66
2023/05/18 04:17:05;;;;;;;11.30;4.55;;;;;;;7.29;70.59;102550.31;3612541;39;20089;-67
2023/05/18 04:19:32;;;;;;;8.55;4.32;;;;;;;7.20;70.25;102543.38;3614008;39;20034;-66
2023/05/18 04:21:58;;;;;;;9.95;4.35;;;;;;;7.34;69.90;102561.81;3615746;39;20345;-66
2023/05/18 04:24:25;;;;;;;10.25;3.90;;;;;;;7.37;69.82;102559.06;3616084;39;20062;-64
2023/05/18 04:26:52;;;;;;;12.18;3.92;;;;;;;7.40;70.53;102559.00;3614588;39;20340;-64
2023/05/18 04:29:18;;;;;;;10.88;3.97;;;;;;;7.41;69.80;102548.25;3611638;39;20063;-64
2023/05/18 04:31:46;;;;;;;9.23;3.97;;;;;;;7.44;70.27;102552.66;3615364;39;20053;-64
2023/05/18 04:34:12;;;;;;;9.98;4.07;;;;;;;7.48;70.44;102549.00;3602578;39;20055;-65
2023/05/18 04:36:41;;;;;;;8.23;3.90;;;;;;;7.50;70.02;102560.56;3606171;39;20130;-65
2023/05/18 04:39:08;;;;;;;5.97;3.83;;;;;;;7.56;70.40;102560.44;3617108;39;20103;-65
2023/05/18 04:41:34;;;;;;;10.65;4.07;;;;;;;7.56;69.83;102560.44;3612621;39;20300;-64
2023/05/18 04:44:00;;;;;;;10.90;4.60;;;;;;;7.28;69.91;102508.44;3613049;39;20046;-65
2023/05/18 04:46:27;;;;;;;15.65;4.50;;;;;;;7.63;69.79;102564.72;3616599;39;20083;-65
2023/05/18 04:48:56;;;;;;;9.55;4.18;;;;;;;7.63;69.66;102562.06;3613566;39;20592;-65
2023/05/18 04:51:23;;;;;;;8.20;4.50;;;;;;;7.67;69.75;102566.44;3617023;39;20077;-66
2023/05/18 04:53:50;;;;;;;10.07;4.72;;;;;;;7.72;69.49;102565.47;3615297;39;20118;-65
2023/05/18 04:56:16;;;;;;;11.82;4.38;;;;;;;7.75;69.09;102573.44;3617066;39;20065;-65
2023/05/18 04:58:46;;;;;;;10.50;4.88;;;;;;;7.46;69.13;102524.09;3618260;39;20043;-65
2023/05/18 05:01:16;;;;;;;10.65;4.20;;;;;;;7.79;69.32;102577.78;3616311;39;20528;-66
2023/05/18 05:03:43;;;;;;;10.50;4.13;;;;;;;7.82;69.47;102577.72;3616195;39;20042;-65
2023/05/18 05:06:10;;;;;;;10.38;4.70;;;;;;;7.86;69.40;102574.06;3617350;39;20054;-66
2023/05/18 05:08:37;;;;;;;10.10;4.82;;;;;;;7.94;69.47;102571.22;3617225;39;20057;-66
2023/05/18 05:11:03;;;;;;;12.60;4.80;;;;;;;7.88;68.75;102550.81;3615175;39;20079;-65
2023/05/18 05:13:29;;;;;;;13.15;5.00;;;;;;;8.05;69.07;102574.50;3616063;39;20078;-66
2023/05/18 05:15:55;;;;;;;11.98;5.80;;;;;;;8.09;68.46;102574.44;3616041;39;20046;-66
2023/05/18 05:18:20;;;;;;;12.95;6.28;;;;;;;8.12;68.04;102574.34;3617990;39;20067;-66
2023/05/18 05:20:48;;;;;;;13.30;5.43;;;;;;;8.21;68.26;102575.03;3616370;39;20067;-66
2023/05/18 05:23:14;;;;;;;16.52;5.90;;;;;;;8.23;67.78;102579.44;3618381;39;20043;-67
2023/05/18 05:25:40;;;;;;;10.50;5.15;;;;;;;8.26;67.92;102574.00;3613932;39;20527;-66
2023/05/18 05:28:05;;;;;;;9.65;4.93;;;;;;;8.43;67.73;102564.72;3618137;39;20497;-67
2023/05/18 05:30:31;;;;;;;10.63;5.35;;;;;;;8.38;67.53;102572.88;3615611;39;20066;-66
2023/05/18 05:32:57;;;;;;;11.05;5.75;;;;;;;8.40;67.31;102575.50;3618090;39;20126;-66
2023/05/18 05:35:22;;;;;;;11.95;5.50;;;;;;;8.43;66.94;102581.66;3618418;39;20300;-66
2023/05/18 05:37:48;;;;;;;10.27;4.70;;;;;;;8.45;67.33;102581.66;3616964;39;20074;-66
2023/05/18 05:40:13;;;;;;;10.18;4.78;;;;;;;8.47;67.19;102586.06;3616847;39;20122;-66
2023/05/18 05:42:40;;;;;;;10.57;4.90;;;;;;;8.48;67.07;102569.03;3617060;39;20050;-67
2023/05/18 05:45:07;;;;;;;13.63;4.90;;;;;;;8.53;66.74;102572.50;3616724;39;20051;-66
2023/05/18 05:47:33;;;;;;;14.68;5.70;;;;;;;8.37;66.58;102529.09;3615595;39;20077;-66
2023/05/18 05:49:58;;;;;;;14.32;4.68;;;;;;;8.62;66.91;102571.38;3614091;39;20290;-66
2023/05/18 05:52:27;;;;;;;12.35;5.15;;;;;;;8.69;66.35;102572.06;3616874;39;20432;-66
2023/05/18 05:54:53;;;;;;;13.05;5.05;;;;;;;8.76;65.87;102573.72;3613920;39;20050;-66
2023/05/18 05:57:19;;;;;;;12.05;4.90;;;;;;;8.84;65.49;102577.03;3616183;39;20438;-66
2023/05/18 05:59:45;;;;;;;11.05;5.03;;;;;;;8.87;65.00;102579.66;3616504;39;20055;-66
2023/05/18 06:02:11;;;;;;;12.75;5.07;;;;;;;8.98;65.43;102574.91;3613028;39;20283;-66
2023/05/18 06:04:37;;;;;;;12.02;4.78;;;;;;;9.08;64.08;102572.84;3617646;39;20118;-66
2023/05/18 06:07:03;;;;;;;13.32;4.85;;;;;;;9.14;63.38;102579.84;3620901;39;20043;-66
2023/05/18 06:09:28;;;;;;;8.02;4.30;;;;;;;9.20;63.56;102574.31;3620774;39;20057;-66
2023/05/18 06:11:54;;;;;;;11.27;4.82;;;;;;;9.30;63.42;102581.16;3616967;39;20062;-65
2023/05/18 06:14:20;;;;;;;11.40;4.57;;;;;;;9.33;63.57;102575.72;3615463;39;20104;-66
2023/05/18 06:16:46;;;;;;;9.25;4.88;;;;;;;9.37;63.05;102566.63;3616211;39;20053;-66
2023/05/18 06:19:12;;;;;;;12.65;4.82;;;;;;;9.52;63.37;102582.31;3618910;39;20054;-66
2023/05/18 06:21:38;;;;;;;12.15;4.30;;;;;;;9.59;62.54;102576.75;3617817;39;20070;-66
2023/05/18 06:24:04;;;;;;;10.02;4.22;;;;;;;9.65;62.63;102581.94;3616839;39;20079;-66
2023/05/18 06:26:30;;;;;;;10.50;4.60;;;;;;;9.62;61.47;102556.06;3613211;39;20082;-66
2023/05/18 06:28:56;;;;;;;13.32;5.68;;;;;;;9.82;61.28;102585.00;3615055;39;20147;-64
2023/05/18 06:31:22;;;;;;;9.25;4.75;;;;;;;9.78;60.51;102572.59;3613849;39;20396;-64
2023/05/18 06:33:47;;;;;;;10.13;4.53;;;;;;;9.89;61.87;102585.69;3618878;39;20058;-65
2023/05/18 06:36:15;;;;;;;10.48;4.53;;;;;;;9.92;61.20;102575.72;3617636;39;20046;-64
2023/05/18 06:38:40;;;;;;;10.85;4.47;;;;;;;10.08;60.96;102588.69;3616077;39;20369;-66
2023/05/18 06:41:06;;;;;;;9.00;4.22;;;;;;;10.19;60.48;102586.53;3613538;39;20065;-66
2023/05/18 06:43:31;;;;;;;10.05;4.47;;;;;;;10.33;59.84;102588.81;3614216;39;20086;-65
2023/05/18 06:45:57;;;;;;;11.30;5.03;;;;;;;10.51;60.24;102590.91;3615480;39;20065;-66
2023/05/18 06:48:27;;;;;;;12.88;4.72;;;;;;;10.64;58.51;102591.38;3618198;39;20054;-65
2023/05/18 06:50:53;;;;;;;14.43;4.70;;;;;;;10.80;58.19;102587.22;3617570;39;20055;-66
2023/05/18 06:53:19;;;;;;;10.38;4.20;;;;;;;11.01;58.06;102585.59;3612847;39;20062;-66
2023/05/18 06:55:44;;;;;;;10.13;4.40;;;;;;;11.18;56.75;102582.28;3614238;39;20057;-65
2023/05/18 06:58:10;;;;;;;13.18;4.40;;;;;;;11.13;56.05;102560.03;3613352;39;20046;-66
2023/05/18 07:00:37;;;;;;;11.13;4.20;;;;;;;11.06;56.42;102529.78;3613623;39;20363;-65
2023/05/18 07:03:03;;;;;;;11.43;4.22;;;;;;;11.58;55.80;102599.69;3612537;39;20046;-65
2023/05/18 07:05:29;;;;;;;11.48;4.28;;;;;;;11.73;55.59;102596.38;3616552;39;20096;-66
2023/05/18 07:07:55;;;;;;;10.00;4.03;;;;;;;11.91;55.39;102594.84;3613450;39;20065;-64
2023/05/18 07:10:21;;;;;;;10.90;4.45;;;;;;;12.11;54.30;102602.13;3614395;39;20067;-65
2023/05/18 07:12:48;;;;;;;12.93;3.88;;;;;;;12.25;53.48;102606.97;3615451;39;20083;-64
2023/05/18 07:15:14;;;;;;;13.75;4.05;;;;;;;12.34;52.81;102597.63;3617859;39;20127;-66
2023/05/18 07:17:39;;;;;;;8.38;3.80;;;;;;;12.58;52.76;102603.84;3610994;39;20089;-65
2023/05/18 07:20:07;;;;;;;10.23;4.13;;;;;;;12.67;52.68;102604.31;3614000;39;20216;-65
2023/05/18 07:22:33;;;;;;;8.45;4.25;;;;;;;12.61;52.27;102580.28;3613357;39;20090;-64
2023/05/18 07:24:59;;;;;;;12.55;4.00;;;;;;;12.83;52.46;102609.06;3613249;39;20062;-63
2023/05/18 07:27:28;;;;;;;10.25;3.90;;;;;;;12.90;52.12;102611.44;3614607;39;20047;-64
2023/05/18 07:29:54;;;;;;;13.68;4.00;;;;;;;12.93;51.96;102605.03;3614388;39;20051;-64
2023/05/18 07:32:20;;;;;;;12.85;4.10;;;;;;;13.08;51.99;102612.47;3615114;39;20067;-64
2023/05/18 07:34:46;;;;;;;10.20;3.85;;;;;;;13.23;51.26;102606.41;3615917;39;20088;-64
2023/05/18 07:37:12;;;;;;;10.95;3.72;;;;;;;12.79;51.41;102519.28;3613666;39;20142;-65
2023/05/18 07:39:38;;;;;;;9.80;3.65;;;;;;;13.53;50.35;102619.50;3616600;39;20050;-65
2023/05/18 07:42:05;;;;;;;9.90;3.53;;;;;;;13.69;50.03;102620.53;3613675;39;20308;-65
2023/05/18 07:44:30;;;;;;;11.25;4.57;;;;;;;13.70;49.81;102616.91;3616023;39;20057;-64
2023/05/18 07:46:56;;;;;;;11.57;4.13;;;;;;;13.93;49.28;102618.53;3617498;39;20054;-65
2023/05/18 07:49:22;;;;;;;10.52;4.22;;;;;;;14.09;49.72;102623.22;3614765;39;20054;-65
2023/05/18 07:51:49;;;;;;;10.40;3.92;;;;;;;14.08;48.03;102591.69;3618003;39;20099;-65
2023/05/18 07:54:15;;;;;;;9.20;4.05;;;;;;;14.31;48.51;102618.50;3616878;39;20074;-65
2023/05/18 07:56:42;;;;;;;9.00;4.38;;;;;;;14.14;47.76;102594.09;3613404;39;20057;-65
2023/05/18 07:59:08;;;;;;;7.82;3.50;;;;;;;14.39;48.26;102631.66;3614081;39;20332;-63
2023/05/18 08:01:36;;;;;;;13.40;4.05;;;;;;;14.52;47.73;102630.13;3614484;39;20058;-65
2023/05/18 08:04:02;;;;;;;7.72;3.78;;;;;;;14.69;48.44;102633.84;3613526;39;20410;-65
2023/05/18 08:06:28;;;;;;;10.30;4.15;;;;;;;14.85;47.34;102630.28;3615671;39;20406;-64
2023/05/18 08:08:55;;;;;;;10.13;3.58;;;;;;;15.05;47.55;102633.78;3615729;39;20047;-64
2023/05/18 08:11:22;;;;;;;9.45;3.78;;;;;;;15.19;45.85;102636.66;3611614;39;20058;-64
2023/05/18 08:13:48;;;;;;;10.68;3.80;;;;;;;15.31;45.60;102624.28;3613607;39;20055;-64
2023/05/18 08:16:13;;;;;;;12.98;3.78;;;;;;;15.45;45.03;102626.28;3616282;39;20106;-65
2023/05/18 08:18:39;;;;;;;11.40;4.15;;;;;;;15.49;45.70;102630.56;3614788;39;20063;-65
2023/05/18 08:21:09;;;;;;;8.57;3.50;;;;;;;15.53;44.64;102630.28;3614075;39;20332;-65
2023/05/18 08:23:35;;;;;;;7.35;3.67;;;;;;;15.45;44.87;102626.28;3615562;39;20062;-65
2023/05/18 08:26:04;;;;;;;10.55;3.85;;;;;;;15.33;45.59;102625.09;3617529;39;20070;-65
2023/05/18 08:28:31;;;;;;;12.07;3.92;;;;;;;15.31;45.08;102629.69;3603540;39;20047;-65
2023/05/18 08:30:57;;;;;;;10.45;3.83;;;;;;;15.36;44.63;102624.94;3614249;39;20444;-65
2023/05/18 08:33:23;;;;;;;10.73;3.90;;;;;;;15.11;44.71;102624.47;3615919;39;20049;-65
2023/05/18 08:35:49;;;;;;;11.35;3.90;;;;;;;14.94;43.66;102620.81;3606115;39;20102;-65
2023/05/18 08:38:15;;;;;;;8.13;3.20;;;;;;;14.99;45.23;102618.72;3615245;39;20454;-65
2023/05/18 08:41:21;;;;;;;9.52;3.65;;;;;;;14.89;45.14;102617.44;3615930;39;20216;-66
2023/05/18 08:44:05;;;;;;;14.30;6.05;;;;;;;15.02;45.93;102605.00;3615881;39;20304;-65
2023/05/18 08:46:33;;;;;;;13.82;5.00;;;;;;;15.39;44.44;102608.50;3615263;39;20139;-65
2023/05/18 08:49:03;;;;;;;11.82;4.05;;;;;;;15.69;44.22;102594.25;3615198;39;20047;-65
2023/05/18 08:51:35;;;;;;;14.77;4.43;;;;;;;16.11;44.10;102611.78;3617588;39;20087;-65
2023/05/18 08:54:07;;;;;;;8.38;3.47;;;;;;;16.26;41.53;102600.06;3617388;39;20054;-64
2023/05/18 08:56:33;;;;;;;11.57;3.63;;;;;;;16.35;40.12;102604.97;3618120;39;20058;-65
2023/05/18 08:59:06;;;;;;;6.68;3.40;;;;;;;16.41;41.35;102606.47;3620368;39;20374;-65
2023/05/18 09:01:32;;;;;;;9.52;3.33;;;;;;;16.50;41.94;102602.34;3616198;39;20376;-64
2023/05/18 09:04:00;;;;;;;9.15;2.95;;;;;;;16.76;41.46;102600.84;3621797;39;20058;-64
2023/05/18 09:06:27;;;;;;;8.98;3.20;;;;;;;16.66;40.27;102600.47;3616385;39;20408;-64
2023/05/18 09:08:57;;;;;;;9.32;3.15;;;;;;;16.42;40.91;102594.63;3616496;39;20089;-64
2023/05/18 09:11:26;;;;;;;9.00;2.97;;;;;;;16.17;40.50;102593.31;3616153;39;20046;-64
2023/05/18 09:13:53;;;;;;;8.75;3.13;;;;;;;16.23;40.11;102602.97;3616931;39;20057;-64
2023/05/18 09:16:19;;;;;;;9.38;3.33;;;;;;;16.09;40.17;102592.91;3616755;39;20131;-65
2023/05/18 09:18:44;;;;;;;11.32;3.30;;;;;;;15.98;40.02;102596.25;3618991;39;20058;-64
2023/05/18 09:21:11;;;;;;;7.50;3.33;;;;;;;16.13;40.79;102594.47;3616970;39;20113;-64
2023/05/18 09:23:40;;;;;;;8.32;3.25;;;;;;;16.29;41.22;102597.19;3620851;39;20061;-64
2023/05/18 09:26:08;;;;;;;12.32;4.25;;;;;;;16.16;41.50;102596.16;3614976;39;20374;-67
2023/05/18 09:28:42;;;;;;;13.25;3.92;;;;;;;16.02;41.25;102576.13;3614941;39;20055;-66
2023/05/18 09:31:11;;;;;;;;;;;;;;;16.24;41.12;102599.31;3621260;39;20051;-65
2023/05/18 09:33:38;;;;;;;10.02;3.92;;;;;;;16.63;40.89;102579.81;3616648;39;19935;-65
2023/05/18 09:36:10;;;;;;;11.32;3.28;;;;;;;16.72;39.15;102586.53;3618798;39;20384;-64
2023/05/18 09:38:48;;;;;;;9.88;3.35;;;;;;;16.73;40.06;102588.28;3617525;39;20035;-65
2023/05/18 09:41:16;;;;;;;7.25;3.05;;;;;;;16.85;39.34;102593.00;3617205;39;20069;-64
2023/05/18 09:43:45;;;;;;;11.32;3.13;;;;;;;16.96;37.41;102562.47;3618800;39;20050;-65
2023/05/18 09:46:12;;;;;;;9.68;3.10;;;;;;;17.00;38.43;102590.31;3617672;39;20046;-65
2023/05/18 09:48:45;;;;;;;7.53;3.13;;;;;;;17.06;41.15;102579.97;3618512;39;20416;-64
2023/05/18 09:51:16;;;;;;;6.63;2.85;;;;;;;17.47;37.65;102583.78;3615487;39;20053;-65
2023/05/18 09:53:51;;;;;;;9.10;3.03;;;;;;;17.73;36.83;102584.84;3614763;39;20062;-65
2023/05/18 09:56:17;;;;;;;10.07;3.05;;;;;;;18.10;36.25;102584.25;3613549;39;20063;-65
2023/05/18 09:58:44;;;;;;;6.28;2.85;;;;;;;18.01;37.46;102575.81;3614035;39;20354;-64
2023/05/18 10:01:10;;;;;;;8.07;3.10;;;;;;;18.03;36.55;102582.03;3615051;39;20509;-65
2023/05/18 10:03:37;;;;;;;6.22;2.97;;;;;;;17.90;36.80;102516.66;3619159;39;20066;-65
2023/05/18 10:06:08;;;;;;;9.40;3.20;;;;;;;18.53;37.21;102569.63;3617107;39;20057;-64
2023/05/18 10:08:36;;;;;;;8.07;3.20;;;;;;;18.78;36.06;102572.47;3615152;39;20059;-65
2023/05/18 10:11:03;;;;;;;8.10;2.90;;;;;;;18.76;35.82;102571.69;3614867;39;20054;-65
2023/05/18 10:13:31;;;;;;;8.88;3.20;;;;;;;18.82;36.49;102569.53;3616747;39;20061;-65
2023/05/18 10:16:00;;;;;;;8.48;3.22;;;;;;;19.04;35.32;102556.16;3613388;39;20042;-64
2023/05/18 10:18:33;;;;;;;8.27;3.10;;;;;;;19.16;35.10;102558.00;3618172;39;20094;-65
2023/05/18 10:21:03;;;;;;;6.90;3.15;;;;;;;19.18;34.92;102564.22;3620434;39;20127;-66
2023/05/18 10:23:35;;;;;;;7.00;2.83;;;;;;;19.23;33.77;102548.41;3616567;39;20058;-67
2023/05/18 10:26:09;;;;;;;6.50;2.85;;;;;;;19.42;35.03;102568.91;3614858;39;20054;-66
2023/05/18 10:28:46;;;;;;;7.68;3.15;;;;;;;19.51;35.01;102562.81;3615360;39;20076;-64
2023/05/18 10:31:15;;;;;;;7.65;3.63;;;;;;;19.69;36.18;102560.63;3617053;39;20052;-65
2023/05/18 10:33:43;;;;;;;7.30;3.88;;;;;;;19.82;33.90;102566.94;3617987;39;20090;-65
2023/05/18 10:36:10;;;;;;;8.35;3.10;;;;;;;19.84;33.70;102555.91;3614453;39;20359;-65
2023/05/18 10:38:42;;;;;;;7.40;3.33;;;;;;;19.72;34.12;102554.94;3614878;39;20093;-64
2023/05/18 10:41:11;;;;;;;6.05;3.10;;;;;;;19.63;33.81;102564.66;3617477;39;20066;-66
2023/05/18 10:43:40;;;;;;;6.85;3.30;;;;;;;19.46;34.62;102559.53;3619345;39;20083;-66
2023/05/18 10:46:08;;;;;;;7.35;3.20;;;;;;;19.23;36.01;102553.00;3617045;39;20047;-65
2023/05/18 10:48:39;;;;;;;7.45;3.30;;;;;;;19.10;35.39;102553.00;3615077;39;20051;-66
2023/05/18 10:51:07;;;;;;;6.85;3.30;;;;;;;18.71;33.65;102548.41;3616552;39;20114;-65
2023/05/18 10:53:33;;;;;;;8.18;3.20;;;;;;;18.53;34.80;102543.25;3614574;39;20059;-65
2023/05/18 10:56:00;;;;;;;9.00;3.10;;;;;;;18.31;35.14;102549.28;3613214;39;20057;-66
2023/05/18 10:58:30;;;;;;;10.23;3.65;;;;;;;18.31;36.22;102543.84;3615209;39;20057;-66
2023/05/18 11:01:00;;;;;;;7.13;3.13;;;;;;;18.45;36.48;102550.19;3615863;39;20055;-64
2023/05/18 11:03:27;;;;;;;7.75;3.00;;;;;;;18.56;35.23;102547.63;3612997;39;20058;-64
2023/05/18 11:06:11;;;;;;;10.63;3.25;;;;;;;18.68;35.28;102545.91;3619176;39;20090;-65
2023/05/18 11:08:48;;;;;;;9.18;3.42;;;;;;;18.59;35.65;102543.84;3611874;39;20057;-65
2023/05/18 11:11:15;;;;;;;8.30;3.00;;;;;;;18.73;35.28;102541.06;3614292;39;20061;-65
2023/05/18 11:13:49;;;;;;;6.28;3.00;;;;;;;18.70;35.19;102539.38;3613956;39;20139;-65
2023/05/18 11:16:16;;;;;;;6.68;3.40;;;;;;;18.77;34.60;102529.84;3613747;39;20063;-66
2023/05/18 11:18:49;;;;;;;7.30;3.50;;;;;;;18.73;34.13;102538.31;3614103;39;20054;-66
2023/05/18 11:21:23;;;;;;;5.88;3.20;;;;;;;18.86;36.39;102531.03;3614202;39;20066;-65
2023/05/18 11:24:23;;;;;;;10.38;3.38;;;;;;;18.75;34.10;102528.22;3611650;39;20076;-66
2023/05/18 11:26:55;;;;;;;7.72;3.10;;;;;;;18.65;34.04;102518.88;3614328;39;20081;-66
2023/05/18 11:29:23;;;;;;;7.22;3.85;;;;;;;18.47;33.67;102532.78;3613514;39;20066;-65
2023/05/18 11:31:54;;;;;;;6.85;3.60;;;;;;;18.36;34.63;102527.19;3613251;39;20067;-64
2023/05/18 11:34:48;;;;;;;9.18;3.63;;;;;;;18.42;35.70;102534.06;3612301;39;20106;-65